Time;durP1;ratioP1;P1;durP2;ratioP2;P2;SDS_P1;SDS_P2;PMS_P1;PMS_P2;Temp;Humidity;BMP_temperature;BMP_pressure;BME280_temperature;BME280_humidity;BME280_pressure;Samples;Min_cycle;Max_cycle;Signal;HPM_P1;HPM_P2
2021/12/29 00:00:13;;;;;;;60.43;19.33;;;;;;;8.31;100.00;98867.56;5090176;28;20212;-74
2021/12/29 00:02:40;;;;;;;47.37;18.20;;;;;;;8.28;100.00;98862.56;5089870;28;20200;-73
2021/12/29 00:05:08;;;;;;;60.23;19.87;;;;;;;8.09;100.00;98836.69;5090606;28;20199;-74
2021/12/29 00:07:36;;;;;;;59.07;19.63;;;;;;;8.24;100.00;98868.63;5090299;28;20202;-74
2021/12/29 00:10:05;;;;;;;64.20;18.57;;;;;;;8.05;100.00;98841.94;5089914;28;20235;-74
2021/12/29 00:12:39;;;;;;;75.03;20.20;;;;;;;8.19;100.00;98862.78;5090507;28;20677;-75
2021/12/29 00:15:06;;;;;;;67.30;20.87;;;;;;;8.18;100.00;98861.97;5091594;28;20211;-74
2021/12/29 00:17:33;;;;;;;57.00;20.50;;;;;;;8.26;100.00;98870.25;5091793;28;20203;-74
2021/12/29 00:20:00;;;;;;;62.50;20.53;;;;;;;8.23;100.00;98875.44;5091524;28;20211;-75
2021/12/29 00:22:27;;;;;;;55.33;18.27;;;;;;;8.19;100.00;98863.63;5091656;28;20674;-74
2021/12/29 00:24:55;;;;;;;50.93;19.80;;;;;;;8.23;100.00;98877.16;5092000;28;20199;-74
2021/12/29 00:27:22;;;;;;;56.63;19.10;;;;;;;8.16;100.00;98858.63;5091795;28;20245;-74
2021/12/29 00:29:49;;;;;;;56.17;19.73;;;;;;;8.08;100.00;98860.53;5091259;28;20199;-74
2021/12/29 00:32:16;;;;;;;46.73;18.67;;;;;;;8.11;100.00;98864.75;5091480;28;20210;-74
2021/12/29 00:34:42;;;;;;;48.70;19.67;;;;;;;8.04;100.00;98864.09;5091543;28;20706;-73
2021/12/29 00:37:10;;;;;;;54.50;19.27;;;;;;;8.04;100.00;98869.19;5091205;28;20229;-74
2021/12/29 00:39:36;;;;;;;45.73;16.37;;;;;;;8.03;100.00;98859.00;5090939;28;20209;-74
2021/12/29 00:42:06;;;;;;;48.10;17.67;;;;;;;8.07;100.00;98864.00;5090497;28;20207;-75
2021/12/29 00:44:33;;;;;;;49.27;16.60;;;;;;;8.08;100.00;98865.66;5089491;28;20218;-74
2021/12/29 00:47:00;;;;;;;51.50;17.93;;;;;;;8.11;100.00;98867.31;5091172;28;20199;-74
2021/12/29 00:49:32;;;;;;;39.97;16.23;;;;;;;8.15;100.00;98877.38;5091380;28;20667;-74
2021/12/29 00:52:00;;;;;;;54.73;18.17;;;;;;;8.16;100.00;98876.50;5091318;28;20191;-74
2021/12/29 00:54:27;;;;;;;40.73;15.43;;;;;;;8.18;100.00;98872.16;5091128;28;20290;-74
2021/12/29 00:56:54;;;;;;;38.57;16.87;;;;;;;8.10;100.00;98863.06;5090995;28;20242;-74
2021/12/29 00:59:23;;;;;;;36.80;14.60;;;;;;;8.11;100.00;98875.78;5091215;28;20206;-74
2021/12/29 01:01:51;;;;;;;31.80;14.23;;;;;;;8.07;100.00;98876.75;5091079;28;20199;-73
2021/12/29 01:04:19;;;;;;;45.73;15.83;;;;;;;8.04;100.00;98871.75;5090932;28;20231;-73
2021/12/29 01:06:46;;;;;;;33.13;13.43;;;;;;;8.01;100.00;98868.44;5091130;28;20199;-73
2021/12/29 01:09:13;;;;;;;33.73;13.50;;;;;;;7.93;100.00;98871.19;5091039;28;20195;-74
2021/12/29 01:11:40;;;;;;;36.00;14.67;;;;;;;7.79;100.00;98855.41;5091003;28;20258;-74
2021/12/29 01:14:08;;;;;;;36.53;13.33;;;;;;;7.89;100.00;98867.06;5090935;28;20192;-74
2021/12/29 01:16:37;;;;;;;38.53;14.63;;;;;;;7.88;100.00;98858.56;5090934;28;20683;-74
2021/12/29 01:19:07;;;;;;;27.20;12.87;;;;;;;7.98;100.00;98858.31;5090767;28;20583;-73
2021/12/29 01:21:36;;;;;;;33.27;13.13;;;;;;;7.98;100.00;98869.34;5091173;28;20294;-74
2021/12/29 01:24:04;;;;;;;30.03;14.23;;;;;;;7.90;100.00;98874.69;5090756;28;20196;-74
2021/12/29 01:26:31;;;;;;;33.83;13.47;;;;;;;7.92;100.00;98864.41;5090879;28;20556;-74
2021/12/29 01:28:58;;;;;;;34.93;14.10;;;;;;;8.00;100.00;98866.75;5090838;28;20199;-74
2021/12/29 01:31:25;;;;;;;35.67;12.97;;;;;;;8.06;100.00;98867.41;5090556;28;20199;-72
2021/12/29 01:33:53;;;;;;;47.47;14.33;;;;;;;8.09;100.00;98862.22;5090843;28;20202;-72
2021/12/29 01:36:20;;;;;;;38.17;14.00;;;;;;;8.06;100.00;98851.25;5090725;28;20229;-72
2021/12/29 01:38:47;;;;;;;35.10;14.27;;;;;;;8.06;100.00;98847.00;5090113;28;20261;-72
2021/12/29 01:41:14;;;;;;;41.33;13.87;;;;;;;8.03;100.00;98851.34;5089555;28;20199;-72
2021/12/29 01:43:41;;;;;;;41.47;14.77;;;;;;;7.99;100.00;98860.81;5089245;28;20213;-72
2021/12/29 01:46:08;;;;;;;37.43;15.77;;;;;;;7.86;100.00;98839.91;5089285;28;20207;-72
2021/12/29 01:48:35;;;;;;;32.20;15.30;;;;;;;7.99;100.00;98845.50;5088520;28;20196;-72
2021/12/29 01:51:03;;;;;;;44.03;15.13;;;;;;;7.99;100.00;98865.91;5088634;28;20195;-72
2021/12/29 01:53:32;;;;;;;29.60;14.07;;;;;;;7.96;100.00;98853.25;5087180;28;20206;-72
2021/12/29 01:55:59;;;;;;;38.97;14.10;;;;;;;8.09;100.00;98857.13;5091454;28;20222;-74
2021/12/29 01:58:27;;;;;;;35.20;15.47;;;;;;;8.16;100.00;98852.69;5092385;28;20191;-74
2021/12/29 02:00:57;;;;;;;34.83;15.33;;;;;;;8.20;100.00;98850.00;5092488;28;20191;-74
2021/12/29 02:03:24;;;;;;;26.87;13.27;;;;;;;8.04;100.00;98833.47;5092630;28;20844;-73
2021/12/29 02:05:52;;;;;;;30.90;13.10;;;;;;;8.01;100.00;98846.31;5092437;28;20199;-74
2021/12/29 02:08:23;;;;;;;30.10;13.27;;;;;;;8.08;100.00;98835.03;5092362;28;20201;-74
2021/12/29 02:10:51;;;;;;;36.03;13.37;;;;;;;8.06;100.00;98829.13;5091444;28;20234;-74
2021/12/29 02:13:19;;;;;;;28.27;12.73;;;;;;;8.03;100.00;98821.56;5092503;28;20214;-74
2021/12/29 02:15:46;;;;;;;38.17;14.00;;;;;;;8.11;100.00;98840.03;5092500;28;20211;-74
2021/12/29 02:18:15;;;;;;;32.83;13.67;;;;;;;8.11;100.00;98834.94;5094138;28;20214;-74
2021/12/29 02:20:46;;;;;;;37.60;17.50;;;;;;;8.12;100.00;98836.59;5092818;28;20217;-74
2021/12/29 02:23:18;;;;;;;32.87;15.63;;;;;;;8.14;100.00;98834.03;5094018;28;20282;-74
2021/12/29 02:25:50;;;;;;;41.30;15.43;;;;;;;8.18;100.00;98836.44;5093939;28;20202;-74
2021/12/29 02:28:25;;;;;;;33.83;15.17;;;;;;;8.15;100.00;98826.31;5094101;28;20196;-74
2021/12/29 02:30:52;;;;;;;40.73;15.73;;;;;;;8.17;100.00;98824.56;5093807;28;20202;-74
2021/12/29 02:33:20;;;;;;;31.20;15.40;;;;;;;8.19;100.00;98817.69;5093801;28;20249;-74
2021/12/29 02:35:48;;;;;;;30.37;16.93;;;;;;;8.13;100.00;98820.41;5092741;28;20219;-74
2021/12/29 02:38:21;;;;;;;28.43;14.73;;;;;;;8.11;100.00;98818.81;5092831;28;20888;-73
2021/12/29 02:40:52;;;;;;;34.70;16.80;;;;;;;8.05;100.00;98806.19;5093004;28;20283;-73
2021/12/29 02:43:21;;;;;;;37.70;15.40;;;;;;;8.11;100.00;98829.81;5093630;28;20244;-74
2021/12/29 02:45:53;;;;;;;35.17;15.57;;;;;;;8.01;100.00;98820.78;5093500;28;20195;-74
2021/12/29 02:48:23;;;;;;;33.83;15.00;;;;;;;8.12;100.00;98831.50;5093565;28;20629;-74
2021/12/29 02:50:55;;;;;;;34.40;14.13;;;;;;;8.10;100.00;98823.06;5093370;28;20199;-73
2021/12/29 02:53:22;;;;;;;30.30;14.33;;;;;;;8.13;100.00;98835.75;5093701;28;20207;-74
2021/12/29 02:55:49;;;;;;;24.23;13.50;;;;;;;8.13;100.00;98848.50;5093241;28;20195;-73
2021/12/29 02:58:16;;;;;;;27.60;14.23;;;;;;;8.08;100.00;98839.31;5093435;28;20202;-74
2021/12/29 03:00:43;;;;;;;24.80;13.03;;;;;;;8.06;100.00;98836.78;5093135;28;20199;-73
2021/12/29 03:03:16;;;;;;;21.07;11.97;;;;;;;8.00;100.00;98842.06;5093244;28;20322;-74
2021/12/29 03:05:43;;;;;;;24.50;11.57;;;;;;;7.97;100.00;98829.41;5092634;28;20261;-74
2021/12/29 03:08:11;;;;;;;25.97;12.83;;;;;;;8.14;100.00;98839.13;5093257;28;20207;-73
2021/12/29 03:10:39;;;;;;;23.40;12.30;;;;;;;8.12;100.00;98835.78;5093102;28;20231;-74
2021/12/29 03:13:07;;;;;;;17.70;11.83;;;;;;;8.15;100.00;98835.69;5092883;28;20203;-74
2021/12/29 03:15:34;;;;;;;18.17;11.50;;;;;;;8.12;100.00;98835.78;5092965;28;20202;-74
2021/12/29 03:18:00;;;;;;;19.63;12.10;;;;;;;8.11;100.00;98832.38;5092755;28;20211;-74
2021/12/29 03:20:27;;;;;;;19.00;11.53;;;;;;;8.11;100.00;98834.94;5092948;28;20195;-74
2021/12/29 03:22:55;;;;;;;25.23;12.43;;;;;;;8.10;100.00;98820.50;5092655;28;20199;-73
2021/12/29 03:25:23;;;;;;;20.97;11.97;;;;;;;8.15;100.00;98833.97;5092881;28;20191;-74
2021/12/29 03:27:50;;;;;;;33.63;11.53;;;;;;;8.14;100.00;98829.72;5092555;28;20641;-73
2021/12/29 03:30:18;;;;;;;15.60;9.43;;;;;;;8.15;100.00;98831.41;5092740;28;20694;-74
2021/12/29 03:32:51;;;;;;;14.57;10.10;;;;;;;8.10;100.00;98825.63;5091692;28;20207;-74
2021/12/29 03:35:18;;;;;;;18.60;10.17;;;;;;;8.12;100.00;98831.50;5090859;28;20203;-73
2021/12/29 03:37:45;;;;;;;18.80;10.60;;;;;;;8.06;100.00;98826.59;5091706;28;20610;-74
2021/12/29 03:40:13;;;;;;;14.50;9.93;;;;;;;8.02;100.00;98819.88;5092252;28;20677;-74
2021/12/29 03:42:41;;;;;;;15.83;9.50;;;;;;;7.90;100.00;98815.97;5092534;28;20203;-73
2021/12/29 03:45:09;;;;;;;19.47;9.63;;;;;;;7.90;100.00;98820.25;5092404;28;20195;-73
2021/12/29 03:47:36;;;;;;;8.43;7.63;;;;;;;7.84;100.00;98821.25;5092306;28;20191;-73
2021/12/29 03:50:04;;;;;;;9.57;7.70;;;;;;;7.75;100.00;98810.50;5092232;28;20296;-73
2021/12/29 03:52:31;;;;;;;8.97;6.80;;;;;;;7.73;100.00;98812.22;5091576;28;20203;-74
2021/12/29 03:54:58;;;;;;;7.87;6.57;;;;;;;7.66;100.00;98810.72;5090131;28;20209;-73
2021/12/29 03:57:24;;;;;;;7.63;6.93;;;;;;;7.59;100.00;98804.13;5090074;28;20214;-73
2021/12/29 03:59:53;;;;;;;7.27;6.70;;;;;;;7.63;100.00;98805.69;5090365;28;20226;-73
2021/12/29 04:02:20;;;;;;;11.30;7.27;;;;;;;7.55;100.00;98805.09;5090186;28;20647;-73
2021/12/29 04:04:49;;;;;;;7.00;6.30;;;;;;;7.51;100.00;98806.88;5090378;28;20195;-73
2021/12/29 04:07:15;;;;;;;7.93;7.23;;;;;;;7.56;100.00;98805.03;5089910;28;20215;-74
2021/12/29 04:09:42;;;;;;;9.40;7.37;;;;;;;7.62;100.00;98811.69;5090938;28;20199;-74
2021/12/29 04:12:10;;;;;;;8.37;7.10;;;;;;;7.60;100.00;98813.44;5089654;28;20742;-73
2021/12/29 04:14:37;;;;;;;9.37;7.30;;;;;;;7.62;100.00;98817.66;5089944;28;20202;-73
2021/12/29 04:17:11;;;;;;;6.83;6.20;;;;;;;7.63;100.00;98828.66;5089342;28;20239;-74
2021/12/29 04:20:54;;;;;;;9.87;7.37;;;;;;;7.65;100.00;98824.38;5089968;28;20230;-74
2021/12/29 04:22:41;;;;;;;8.13;7.33;;;;;;;7.60;100.00;98816.84;5090158;28;20660;-73
2021/12/29 04:25:09;;;;;;;7.33;6.77;;;;;;;7.52;100.00;98817.94;5089718;28;20229;-72
2021/12/29 04:27:35;;;;;;;7.50;6.63;;;;;;;7.52;100.00;98817.94;5091752;28;20599;-73
2021/12/29 04:30:03;;;;;;;7.97;7.27;;;;;;;7.52;100.00;98813.66;5090747;28;20204;-73
2021/12/29 04:32:31;;;;;;;8.17;7.30;;;;;;;7.51;100.00;98813.69;5091235;28;20575;-73
2021/12/29 04:34:58;;;;;;;7.07;6.50;;;;;;;7.34;100.00;98803.94;5090490;28;20647;-73
2021/12/29 04:37:25;;;;;;;11.67;6.47;;;;;;;7.40;100.00;98809.72;5091100;28;20230;-73
2021/12/29 04:39:52;;;;;;;6.17;5.67;;;;;;;7.36;100.00;98803.06;5091745;28;20195;-74
2021/12/29 04:42:20;;;;;;;9.60;6.17;;;;;;;7.33;100.00;98800.56;5091455;28;20556;-73
2021/12/29 04:44:47;;;;;;;10.97;7.87;;;;;;;7.24;100.00;98795.72;5091449;28;20664;-73
2021/12/29 04:47:14;;;;;;;9.73;7.77;;;;;;;7.18;100.00;98784.84;5091263;28;20191;-73
2021/12/29 04:49:43;;;;;;;9.23;7.27;;;;;;;7.19;100.00;98784.81;5091217;28;20651;-73
2021/12/29 04:52:13;;;;;;;8.27;7.47;;;;;;;7.23;100.00;98781.31;5091217;28;20685;-73
2021/12/29 04:54:40;;;;;;;7.53;6.83;;;;;;;7.18;100.00;98784.84;5091370;28;20227;-73
2021/12/29 04:57:07;;;;;;;8.10;6.50;;;;;;;7.14;100.00;98789.19;5091232;28;20302;-73
2021/12/29 04:59:34;;;;;;;7.30;6.17;;;;;;;7.12;100.00;98792.66;5089671;28;20290;-73
2021/12/29 05:02:01;;;;;;;6.43;5.83;;;;;;;7.07;100.00;98790.25;5091102;28;20216;-73
2021/12/29 05:04:33;;;;;;;6.60;5.77;;;;;;;7.03;100.00;98783.53;5091042;28;20605;-73
2021/12/29 05:09:47;;;;;;;7.60;6.83;;;;;;;6.95;100.00;98784.63;5090875;28;20198;-73
2021/12/29 05:12:14;;;;;;;6.67;6.10;;;;;;;7.00;100.00;98786.16;5090923;28;20203;-72
2021/12/29 05:14:41;;;;;;;7.10;6.50;;;;;;;7.09;100.00;98793.56;5090979;28;20214;-72
2021/12/29 05:17:08;;;;;;;8.83;7.87;;;;;;;7.11;100.00;98789.25;5090838;28;20215;-72
2021/12/29 05:19:35;;;;;;;7.90;7.20;;;;;;;7.12;100.00;98788.38;5090952;28;20213;-73
2021/12/29 05:22:05;;;;;;;8.83;7.77;;;;;;;7.14;100.00;98796.81;5090964;28;20287;-72
2021/12/29 05:24:32;;;;;;;10.50;9.00;;;;;;;7.02;100.00;98775.91;5090740;28;20199;-72
2021/12/29 05:26:59;;;;;;;10.63;9.53;;;;;;;7.14;100.00;98786.63;5090785;28;20234;-73
2021/12/29 05:29:27;;;;;;;11.90;8.13;;;;;;;7.14;100.00;98775.63;5091630;28;20195;-73
2021/12/29 05:31:54;;;;;;;8.40;7.57;;;;;;;7.01;100.00;98767.44;5094168;28;20200;-73
2021/12/29 05:34:21;;;;;;;8.57;7.83;;;;;;;7.02;100.00;98766.56;5095100;28;20675;-73
2021/12/29 05:36:48;;;;;;;7.53;6.70;;;;;;;7.07;100.00;98764.75;5094608;28;20215;-73
2021/12/29 05:39:16;;;;;;;9.47;7.10;;;;;;;7.03;100.00;98763.16;5094926;28;20590;-74
2021/12/29 05:41:43;;;;;;;8.77;7.77;;;;;;;6.96;100.00;98736.16;5094843;28;20191;-74
2021/12/29 05:44:10;;;;;;;9.33;8.37;;;;;;;7.09;100.00;98755.34;5095159;28;20575;-74
2021/12/29 05:46:37;;;;;;;10.37;8.27;;;;;;;7.02;100.00;98741.09;5094544;28;20203;-74
2021/12/29 05:49:04;;;;;;;9.53;8.63;;;;;;;7.09;100.00;98750.25;5094746;28;20195;-74
2021/12/29 05:51:31;;;;;;;9.50;8.50;;;;;;;7.06;100.00;98757.13;5094513;28;20681;-74
2021/12/29 05:53:58;;;;;;;7.53;6.70;;;;;;;7.06;100.00;98762.22;5094273;28;20196;-74
2021/12/29 05:56:26;;;;;;;7.90;7.00;;;;;;;7.01;100.00;98758.97;5094783;28;20228;-74
2021/12/29 05:58:56;;;;;;;7.67;7.03;;;;;;;7.01;100.00;98759.78;5093210;28;20195;-75
2021/12/29 06:01:23;;;;;;;7.37;6.63;;;;;;;6.99;100.00;98761.56;5093660;28;20195;-74
2021/12/29 06:03:50;;;;;;;8.33;6.30;;;;;;;6.97;100.00;98763.31;5092184;28;20199;-73
2021/12/29 06:06:17;;;;;;;10.13;6.80;;;;;;;6.93;100.00;98771.91;5092768;28;20210;-74
2021/12/29 06:08:44;;;;;;;9.10;7.30;;;;;;;7.00;100.00;98768.31;5092603;28;20225;-74
2021/12/29 06:11:11;;;;;;;7.77;7.00;;;;;;;7.00;100.00;98773.44;5091506;28;20722;-74
2021/12/29 06:13:39;;;;;;;8.60;7.73;;;;;;;6.93;100.00;98761.72;5092801;28;20208;-74
2021/12/29 06:16:06;;;;;;;10.17;7.67;;;;;;;6.96;100.00;98765.88;5092391;28;20210;-74
2021/12/29 06:18:33;;;;;;;11.30;7.57;;;;;;;6.97;100.00;98763.31;5093689;28;20223;-74
2021/12/29 06:21:00;;;;;;;9.10;7.63;;;;;;;6.90;100.00;98761.78;5093732;28;20582;-74
2021/12/29 06:23:26;;;;;;;11.87;9.87;;;;;;;6.96;100.00;98771.81;5094068;28;20187;-74
2021/12/29 06:25:53;;;;;;;19.73;16.97;;;;;;;6.99;100.00;98768.34;5092997;28;20199;-72
2021/12/29 06:28:20;;;;;;;11.17;10.20;;;;;;;6.92;100.00;98772.78;5092888;28;20205;-72
2021/12/29 06:30:49;;;;;;;12.17;9.90;;;;;;;6.78;100.00;98757.00;5092759;28;20587;-73
2021/12/29 06:33:16;;;;;;;9.57;8.57;;;;;;;6.89;100.00;98780.50;5093613;28;20678;-73
2021/12/29 06:35:42;;;;;;;13.23;10.00;;;;;;;6.86;100.00;98785.66;5091332;28;20216;-71
2021/12/29 06:38:09;;;;;;;16.40;10.17;;;;;;;6.82;100.00;98795.09;5093115;28;20215;-73
2021/12/29 06:40:36;;;;;;;16.87;10.17;;;;;;;6.82;100.00;98799.34;5092479;28;20199;-73
2021/12/29 06:43:03;;;;;;;14.73;11.03;;;;;;;6.87;100.00;98797.53;5093240;28;20200;-72
2021/12/29 06:45:30;;;;;;;16.43;11.50;;;;;;;6.70;100.00;98772.47;5093555;28;20294;-73
2021/12/29 06:47:58;;;;;;;14.47;11.53;;;;;;;6.95;100.00;98805.00;5093395;28;20204;-73
2021/12/29 06:50:25;;;;;;;12.83;11.60;;;;;;;6.91;100.00;98814.44;5093015;28;20195;-73
2021/12/29 06:52:52;;;;;;;16.70;12.47;;;;;;;6.91;100.00;98816.13;5093194;28;20207;-72
2021/12/29 06:55:19;;;;;;;24.87;12.93;;;;;;;6.79;100.00;98801.97;5093427;28;20746;-73
2021/12/29 06:57:46;;;;;;;19.70;14.47;;;;;;;6.98;100.00;98815.94;5093162;28;20207;-73
2021/12/29 07:00:14;;;;;;;24.73;14.27;;;;;;;6.99;100.00;98817.59;5093108;28;20198;-73
2021/12/29 07:02:42;;;;;;;13.63;11.23;;;;;;;7.00;100.00;98819.28;5089417;28;20210;-73
2021/12/29 07:05:11;;;;;;;15.60;12.73;;;;;;;7.09;100.00;98818.22;5092708;28;20211;-73
2021/12/29 07:07:38;;;;;;;18.43;12.10;;;;;;;7.01;100.00;98815.84;5093019;28;20200;-73
2021/12/29 07:10:06;;;;;;;17.37;12.03;;;;;;;6.97;100.00;98814.28;5093013;28;20270;-73
2021/12/29 07:12:33;;;;;;;14.03;11.77;;;;;;;7.00;100.00;98816.75;5092864;28;20290;-73
2021/12/29 07:15:00;;;;;;;14.17;11.33;;;;;;;7.03;100.00;98816.66;5092913;28;20221;-73
2021/12/29 07:17:27;;;;;;;14.50;10.53;;;;;;;7.00;100.00;98818.44;5092773;28;20591;-73
2021/12/29 07:19:54;;;;;;;13.53;9.27;;;;;;;7.02;100.00;98811.59;5093199;28;20196;-73
2021/12/29 07:22:23;;;;;;;12.43;10.07;;;;;;;7.07;100.00;98815.72;5092689;28;20278;-73
2021/12/29 07:24:50;;;;;;;12.53;10.60;;;;;;;7.02;100.00;98819.22;5092471;28;20212;-72
2021/12/29 07:27:17;;;;;;;14.10;10.13;;;;;;;6.95;100.00;98810.09;5091977;28;20202;-73
2021/12/29 07:29:43;;;;;;;16.97;10.83;;;;;;;6.93;100.00;98815.22;5092749;28;20659;-72
2021/12/29 07:32:10;;;;;;;13.87;11.10;;;;;;;6.94;100.00;98814.34;5092679;28;20575;-73
2021/12/29 07:34:52;;;;;;;16.47;11.23;;;;;;;6.95;100.00;98816.00;5092442;28;20199;-73
2021/12/29 07:37:19;;;;;;;17.40;11.57;;;;;;;6.81;100.00;98798.53;5092659;28;20223;-72
2021/12/29 07:39:47;;;;;;;18.03;10.87;;;;;;;6.92;100.00;98813.53;5091417;28;20549;-72
2021/12/29 07:42:14;;;;;;;16.20;11.43;;;;;;;6.84;100.00;98805.25;5092502;28;20195;-73
2021/12/29 07:44:43;;;;;;;13.27;11.47;;;;;;;6.88;100.00;98814.50;5092551;28;20693;-73
2021/12/29 07:47:12;;;;;;;19.53;12.97;;;;;;;6.87;100.00;98812.81;5092256;28;20195;-73
2021/12/29 07:49:39;;;;;;;26.57;17.57;;;;;;;6.88;100.00;98809.41;5092094;28;20265;-73
2021/12/29 07:52:06;;;;;;;36.63;21.73;;;;;;;6.93;100.00;98812.66;5091411;28;20706;-73
2021/12/29 07:54:33;;;;;;;32.07;17.97;;;;;;;6.94;100.00;98808.41;5091978;28;20211;-73
2021/12/29 07:57:01;;;;;;;22.67;15.00;;;;;;;6.90;100.00;98812.75;5092502;28;20199;-72
2021/12/29 07:59:28;;;;;;;31.47;18.67;;;;;;;6.93;100.00;98810.13;5091979;28;20230;-72
2021/12/29 08:01:55;;;;;;;20.33;16.07;;;;;;;6.97;100.00;98819.38;5092144;28;20206;-72
2021/12/29 08:04:22;;;;;;;29.73;18.07;;;;;;;6.96;100.00;98817.69;5091926;28;20203;-73
2021/12/29 08:06:49;;;;;;;32.23;21.20;;;;;;;6.85;100.00;98800.09;5091909;28;20211;-73
2021/12/29 08:09:16;;;;;;;33.17;20.10;;;;;;;7.00;100.00;98824.38;5092162;28;20682;-72
2021/12/29 08:11:43;;;;;;;47.53;25.10;;;;;;;7.02;100.00;98827.72;5091900;28;20965;-73
2021/12/29 08:14:11;;;;;;;41.27;24.60;;;;;;;7.07;100.00;98825.91;5088282;28;20191;-73
2021/12/29 08:16:38;;;;;;;51.33;26.03;;;;;;;7.08;100.00;98824.19;5091770;28;20195;-73
2021/12/29 08:19:06;;;;;;;50.30;29.43;;;;;;;7.07;100.00;98825.91;5092106;28;20683;-73
2021/12/29 08:21:33;;;;;;;46.63;28.33;;;;;;;7.17;100.00;98827.31;5091813;28;20286;-73
2021/12/29 08:24:00;;;;;;;38.93;22.83;;;;;;;7.13;100.00;98822.38;5090795;28;20594;-73
2021/12/29 08:26:27;;;;;;;53.17;29.73;;;;;;;7.15;100.00;98820.59;5091739;28;20210;-73
2021/12/29 08:28:57;;;;;;;62.07;35.27;;;;;;;7.25;100.00;98824.59;5091604;28;20202;-73
2021/12/29 08:31:25;;;;;;;30.03;18.93;;;;;;;7.32;100.00;98826.94;5092159;28;20196;-73
2021/12/29 08:33:52;;;;;;;29.20;17.33;;;;;;;7.26;100.00;98832.22;5091686;28;20205;-72
2021/12/29 08:36:19;;;;;;;24.17;16.67;;;;;;;7.26;100.00;98832.22;5091719;28;20693;-73
2021/12/29 08:38:46;;;;;;;21.10;14.27;;;;;;;7.20;100.00;98822.19;5091648;28;20698;-73
2021/12/29 08:41:14;;;;;;;25.07;15.70;;;;;;;7.26;100.00;98829.66;5091592;28;20199;-73
2021/12/29 08:43:41;;;;;;;27.20;16.87;;;;;;;7.36;100.00;98822.59;5091602;28;20199;-73
2021/12/29 08:46:08;;;;;;;23.77;15.50;;;;;;;7.38;100.00;98820.84;5090933;28;20202;-73
2021/12/29 08:48:37;;;;;;;18.10;14.70;;;;;;;7.45;100.00;98829.16;5091276;28;20278;-73
2021/12/29 08:51:05;;;;;;;28.23;15.77;;;;;;;7.49;100.00;98818.03;5090900;28;20773;-73
2021/12/29 08:53:32;;;;;;;21.93;15.87;;;;;;;7.48;100.00;98823.97;5091392;28;20327;-73
2021/12/29 08:55:59;;;;;;;23.47;14.43;;;;;;;7.48;100.00;98816.34;5091362;28;20199;-73
2021/12/29 08:58:26;;;;;;;22.13;13.97;;;;;;;7.52;100.00;98815.38;5090937;28;20306;-73
2021/12/29 09:00:54;;;;;;;25.47;17.00;;;;;;;7.54;100.00;98816.16;5091086;28;20226;-73
2021/12/29 09:03:22;;;;;;;27.00;15.87;;;;;;;7.49;100.00;98803.56;5089450;28;20286;-73
2021/12/29 09:05:51;;;;;;;21.60;13.30;;;;;;;7.50;100.00;98814.56;5090551;28;20574;-73
2021/12/29 09:08:18;;;;;;;20.33;15.10;;;;;;;7.46;100.00;98813.00;5090550;28;20198;-73
2021/12/29 09:10:45;;;;;;;21.37;15.37;;;;;;;7.47;100.00;98801.91;5090644;28;20233;-73
2021/12/29 09:13:13;;;;;;;22.63;14.73;;;;;;;7.33;100.00;98779.34;5090828;28;20206;-73
2021/12/29 09:15:40;;;;;;;23.50;16.87;;;;;;;7.32;100.00;98775.97;5090797;28;20668;-73
2021/12/29 09:18:07;;;;;;;24.73;16.87;;;;;;;7.25;100.00;98765.97;5089679;28;20225;-73
2021/12/29 09:20:37;;;;;;;27.30;18.77;;;;;;;7.32;100.00;98764.91;5090537;28;20208;-73
2021/12/29 09:23:08;;;;;;;24.00;16.47;;;;;;;7.42;100.00;98768.06;5089769;28;20710;-72
2021/12/29 09:25:38;;;;;;;23.83;16.60;;;;;;;7.45;100.00;98775.63;5090740;28;20206;-73
2021/12/29 09:28:05;;;;;;;28.77;14.33;;;;;;;7.54;100.00;98775.34;5090645;28;20200;-72
2021/12/29 09:30:34;;;;;;;21.90;12.97;;;;;;;7.57;100.00;98786.31;5090412;28;20221;-73
2021/12/29 09:33:02;;;;;;;23.33;14.23;;;;;;;7.62;100.00;98778.53;5089318;28;20210;-74
2021/12/29 09:35:29;;;;;;;16.80;14.00;;;;;;;7.63;100.00;98772.53;5090726;28;20201;-73
2021/12/29 09:37:57;;;;;;;16.77;13.17;;;;;;;7.62;100.00;98768.34;5090837;28;20201;-74
2021/12/29 09:40:25;;;;;;;18.90;13.57;;;;;;;7.57;100.00;98759.97;5090385;28;20205;-73
2021/12/29 09:42:54;;;;;;;23.37;13.33;;;;;;;7.42;100.00;98740.00;5090668;28;20195;-73
2021/12/29 09:45:22;;;;;;;23.33;14.90;;;;;;;7.48;100.00;98747.47;5090276;28;20215;-73
2021/12/29 09:47:50;;;;;;;20.17;13.00;;;;;;;7.57;100.00;98748.06;5090936;28;20282;-73
2021/12/29 09:50:19;;;;;;;16.63;14.63;;;;;;;7.65;100.00;98748.69;5090756;28;20199;-73
2021/12/29 09:52:47;;;;;;;19.83;13.07;;;;;;;7.62;100.00;98747.94;5090714;28;20299;-73
2021/12/29 09:55:17;;;;;;;16.07;13.17;;;;;;;7.57;100.00;98750.59;5090469;28;20574;-73
2021/12/29 09:57:51;;;;;;;20.83;13.20;;;;;;;7.51;100.00;98729.53;5090441;28;20639;-73
2021/12/29 10:00:23;;;;;;;17.47;13.53;;;;;;;7.52;100.00;98721.03;5090191;28;20202;-73
2021/12/29 10:02:51;;;;;;;14.57;12.90;;;;;;;7.55;100.00;98736.22;5090497;28;20199;-73
2021/12/29 10:05:20;;;;;;;15.20;11.90;;;;;;;7.59;100.00;98727.63;5090541;28;20655;-73
2021/12/29 10:07:58;;;;;;;18.37;13.93;;;;;;;7.57;100.00;98708.97;5090429;28;20203;-73
2021/12/29 10:10:25;;;;;;;23.30;16.00;;;;;;;7.62;100.00;98717.34;5089867;28;20241;-73
2021/12/29 10:12:53;;;;;;;22.07;16.13;;;;;;;7.63;100.00;98718.97;5090456;28;20204;-73
2021/12/29 10:15:20;;;;;;;25.70;16.93;;;;;;;7.44;100.00;98682.97;5090593;28;20584;-74
2021/12/29 10:17:47;;;;;;;38.10;24.30;;;;;;;7.55;100.00;98703.06;5093013;28;20202;-73
2021/12/29 10:20:17;;;;;;;35.17;21.37;;;;;;;7.54;100.00;98683.53;5092430;28;20215;-73
2021/12/29 10:22:56;;;;;;;29.97;20.23;;;;;;;7.66;100.00;98696.78;5093061;28;20229;-73
2021/12/29 10:25:24;;;;;;;26.73;16.27;;;;;;;7.73;100.00;98700.81;5094678;28;20574;-73
2021/12/29 10:27:53;;;;;;;24.33;16.40;;;;;;;7.78;100.00;98709.19;5093894;28;20253;-74
2021/12/29 10:30:23;;;;;;;28.93;16.97;;;;;;;7.81;100.00;98703.16;5093780;28;20218;-74
2021/12/29 10:32:50;;;;;;;23.17;16.27;;;;;;;7.82;100.00;98699.69;5090456;28;20207;-73
2021/12/29 10:35:23;;;;;;;30.23;17.53;;;;;;;7.89;100.00;98699.47;5093789;28;20199;-73
2021/12/29 10:37:50;;;;;;;24.50;15.60;;;;;;;7.98;100.00;98713.66;5093038;28;20764;-73
2021/12/29 10:40:26;;;;;;;23.00;17.07;;;;;;;7.96;100.00;98706.94;5092584;28;20220;-73
2021/12/29 10:42:57;;;;;;;19.77;14.30;;;;;;;7.99;100.00;98704.28;5091374;28;20198;-74
2021/12/29 10:45:32;;;;;;;13.03;11.73;;;;;;;7.98;100.00;98700.91;5093519;28;20222;-74
2021/12/29 10:47:59;;;;;;;13.40;11.80;;;;;;;8.06;100.00;98693.84;5093292;28;20191;-74
2021/12/29 10:50:28;;;;;;;15.80;12.80;;;;;;;7.95;100.00;98675.47;5093096;28;20651;-74
2021/12/29 10:52:57;;;;;;;14.63;11.93;;;;;;;7.97;100.00;98694.16;5092141;28;20191;-73
2021/12/29 10:55:31;;;;;;;23.67;16.47;;;;;;;8.07;100.00;98700.63;5093803;28;20202;-73
2021/12/29 10:58:06;;;;;;;40.03;24.13;;;;;;;8.12;100.00;98698.75;5093342;28;20540;-73
2021/12/29 11:00:34;;;;;;;26.97;18.87;;;;;;;8.15;100.00;98697.81;5092951;28;20213;-73
2021/12/29 11:03:09;;;;;;;21.97;14.83;;;;;;;8.17;100.00;98694.38;5093174;28;20578;-73
2021/12/29 11:05:39;;;;;;;19.53;13.60;;;;;;;8.09;100.00;98691.19;5093119;28;20570;-73
2021/12/29 11:08:08;;;;;;;19.53;14.33;;;;;;;8.10;100.00;98682.66;5092864;28;20687;-72
2021/12/29 11:10:35;;;;;;;19.00;14.13;;;;;;;8.10;100.00;98682.66;5092797;28;20223;-72
2021/12/29 11:13:04;;;;;;;16.60;13.07;;;;;;;8.15;100.00;98673.13;5092732;28;20202;-72
2021/12/29 11:15:36;;;;;;;21.50;16.00;;;;;;;8.21;100.00;98672.94;5091978;28;20199;-72
2021/12/29 11:18:06;;;;;;;14.73;12.70;;;;;;;8.25;100.00;98669.41;5091747;28;20202;-71
2021/12/29 11:20:34;;;;;;;18.37;13.63;;;;;;;8.31;100.00;98673.50;5092837;28;20296;-72
2021/12/29 11:23:06;;;;;;;17.83;13.03;;;;;;;8.31;100.00;98676.91;5092354;28;20202;-71
2021/12/29 11:25:35;;;;;;;19.77;12.47;;;;;;;8.31;100.00;98674.34;5092575;28;20199;-72
2021/12/29 11:28:04;;;;;;;19.00;11.87;;;;;;;8.23;100.00;98666.09;5092214;28;20199;-71